sensor_id;sensor_type;location;lat;lon;timestamp;P1;durP1;ratioP1;P2;durP2;ratioP2
72286;SDS011;60221;45.696;16.076;2023-08-08T00:00:51;1.70;;;0.10;;
72286;SDS011;60221;45.696;16.076;2023-08-08T00:03:18;3.60;;;0.20;;
72286;SDS011;60221;45.696;16.076;2023-08-08T00:05:45;3.20;;;0.20;;
72286;SDS011;60221;45.696;16.076;2023-08-08T00:08:11;2.80;;;0.10;;
72286;SDS011;60221;45.696;16.076;2023-08-08T00:10:38;1.90;;;0.20;;
72286;SDS011;60221;45.696;16.076;2023-08-08T00:13:05;1.70;;;0.20;;
72286;SDS011;60221;45.696;16.076;2023-08-08T00:15:31;2.10;;;0.10;;
72286;SDS011;60221;45.696;16.076;2023-08-08T00:17:59;1.20;;;0.10;;
72286;SDS011;60221;45.696;16.076;2023-08-08T00:20:26;4.60;;;0.20;;
72286;SDS011;60221;45.696;16.076;2023-08-08T00:22:52;2.20;;;0.20;;
72286;SDS011;60221;45.696;16.076;2023-08-08T00:25:19;3.20;;;0.10;;
72286;SDS011;60221;45.696;16.076;2023-08-08T00:27:46;4.10;;;0.20;;
72286;SDS011;60221;45.696;16.076;2023-08-08T00:30:12;3.50;;;0.10;;
72286;SDS011;60221;45.696;16.076;2023-08-08T00:32:40;2.80;;;0.20;;
72286;SDS011;60221;45.696;16.076;2023-08-08T00:35:07;2.50;;;0.20;;
72286;SDS011;60221;45.696;16.076;2023-08-08T00:37:34;2.50;;;0.20;;
72286;SDS011;60221;45.696;16.076;2023-08-08T00:40:00;1.20;;;0.10;;
72286;SDS011;60221;45.696;16.076;2023-08-08T00:42:27;2.70;;;0.10;;
72286;SDS011;60221;45.696;16.076;2023-08-08T00:44:54;0.60;;;0.10;;
72286;SDS011;60221;45.696;16.076;2023-08-08T00:47:20;0.60;;;0.10;;
72286;SDS011;60221;45.696;16.076;2023-08-08T00:49:47;1.60;;;0.10;;
72286;SDS011;60221;45.696;16.076;2023-08-08T00:52:15;1.40;;;0.10;;
72286;SDS011;60221;45.696;16.076;2023-08-08T00:54:41;1.70;;;0.10;;
72286;SDS011;60221;45.696;16.076;2023-08-08T00:57:08;1.50;;;0.10;;
72286;SDS011;60221;45.696;16.076;2023-08-08T00:59:35;2.10;;;0.10;;
72286;SDS011;60221;45.696;16.076;2023-08-08T01:02:01;1.40;;;0.10;;
72286;SDS011;60221;45.696;16.076;2023-08-08T01:04:28;2.30;;;0.10;;
72286;SDS011;60221;45.696;16.076;2023-08-08T01:07:06;4.90;;;0.20;;
72286;SDS011;60221;45.696;16.076;2023-08-08T01:09:39;2.90;;;0.10;;
72286;SDS011;60221;45.696;16.076;2023-08-08T01:12:08;1.10;;;0.10;;
72286;SDS011;60221;45.696;16.076;2023-08-08T01:14:35;0.80;;;0.10;;
72286;SDS011;60221;45.696;16.076;2023-08-08T01:17:02;1.00;;;0.10;;
72286;SDS011;60221;45.696;16.076;2023-08-08T01:19:30;1.50;;;0.10;;
72286;SDS011;60221;45.696;16.076;2023-08-08T01:21:58;2.50;;;0.10;;
72286;SDS011;60221;45.696;16.076;2023-08-08T01:24:29;3.70;;;0.20;;
72286;SDS011;60221;45.696;16.076;2023-08-08T01:26:57;2.50;;;0.10;;
72286;SDS011;60221;45.696;16.076;2023-08-08T01:29:24;1.70;;;0.20;;
72286;SDS011;60221;45.696;16.076;2023-08-08T01:31:51;1.70;;;0.20;;
72286;SDS011;60221;45.696;16.076;2023-08-08T01:34:18;3.80;;;0.30;;
72286;SDS011;60221;45.696;16.076;2023-08-08T01:36:48;4.20;;;0.20;;
72286;SDS011;60221;45.696;16.076;2023-08-08T01:39:16;2.70;;;0.20;;
72286;SDS011;60221;45.696;16.076;2023-08-08T01:41:44;2.50;;;0.10;;
72286;SDS011;60221;45.696;16.076;2023-08-08T01:44:13;4.00;;;0.20;;
72286;SDS011;60221;45.696;16.076;2023-08-08T01:46:40;1.30;;;0.30;;
72286;SDS011;60221;45.696;16.076;2023-08-08T01:49:07;2.20;;;0.20;;
72286;SDS011;60221;45.696;16.076;2023-08-08T01:51:35;3.20;;;0.20;;
72286;SDS011;60221;45.696;16.076;2023-08-08T01:54:01;2.20;;;0.10;;
72286;SDS011;60221;45.696;16.076;2023-08-08T01:56:28;3.30;;;0.20;;
72286;SDS011;60221;45.696;16.076;2023-08-08T01:58:55;6.30;;;0.40;;
72286;SDS011;60221;45.696;16.076;2023-08-08T02:01:21;2.60;;;0.20;;
72286;SDS011;60221;45.696;16.076;2023-08-08T02:03:48;3.40;;;0.10;;
72286;SDS011;60221;45.696;16.076;2023-08-08T02:06:15;2.70;;;0.20;;
72286;SDS011;60221;45.696;16.076;2023-08-08T02:08:42;3.80;;;0.10;;
72286;SDS011;60221;45.696;16.076;2023-08-08T02:11:08;2.10;;;0.10;;
72286;SDS011;60221;45.696;16.076;2023-08-08T02:13:35;1.30;;;0.10;;
72286;SDS011;60221;45.696;16.076;2023-08-08T02:16:02;2.40;;;0.10;;
72286;SDS011;60221;45.696;16.076;2023-08-08T02:18:29;1.40;;;0.10;;
72286;SDS011;60221;45.696;16.076;2023-08-08T02:20:56;3.50;;;0.10;;
72286;SDS011;60221;45.696;16.076;2023-08-08T02:23:22;1.60;;;0.10;;
72286;SDS011;60221;45.696;16.076;2023-08-08T02:25:49;2.30;;;0.10;;
72286;SDS011;60221;45.696;16.076;2023-08-08T02:28:16;3.70;;;0.20;;
72286;SDS011;60221;45.696;16.076;2023-08-08T02:30:43;3.80;;;0.20;;
72286;SDS011;60221;45.696;16.076;2023-08-08T02:33:09;1.70;;;0.10;;
72286;SDS011;60221;45.696;16.076;2023-08-08T02:35:37;2.80;;;0.10;;
72286;SDS011;60221;45.696;16.076;2023-08-08T02:38:04;1.40;;;0.10;;
72286;SDS011;60221;45.696;16.076;2023-08-08T02:40:31;1.50;;;0.10;;
72286;SDS011;60221;45.696;16.076;2023-08-08T02:42:59;3.70;;;0.30;;
72286;SDS011;60221;45.696;16.076;2023-08-08T02:45:26;1.80;;;0.10;;
72286;SDS011;60221;45.696;16.076;2023-08-08T02:47:53;2.20;;;0.10;;
72286;SDS011;60221;45.696;16.076;2023-08-08T02:50:20;2.10;;;0.20;;
72286;SDS011;60221;45.696;16.076;2023-08-08T02:52:47;2.20;;;0.10;;
72286;SDS011;60221;45.696;16.076;2023-08-08T02:55:14;1.70;;;0.10;;
72286;SDS011;60221;45.696;16.076;2023-08-08T02:57:41;3.90;;;0.20;;
72286;SDS011;60221;45.696;16.076;2023-08-08T03:00:08;2.50;;;0.10;;
72286;SDS011;60221;45.696;16.076;2023-08-08T03:02:37;3.10;;;0.20;;
72286;SDS011;60221;45.696;16.076;2023-08-08T03:05:04;2.50;;;0.10;;
72286;SDS011;60221;45.696;16.076;2023-08-08T03:07:32;1.80;;;0.10;;
72286;SDS011;60221;45.696;16.076;2023-08-08T03:09:58;5.40;;;0.20;;
72286;SDS011;60221;45.696;16.076;2023-08-08T03:12:25;2.60;;;0.20;;
72286;SDS011;60221;45.696;16.076;2023-08-08T03:14:52;7.10;;;0.50;;
72286;SDS011;60221;45.696;16.076;2023-08-08T03:17:19;1.10;;;0.10;;
72286;SDS011;60221;45.696;16.076;2023-08-08T03:19:45;1.10;;;0.10;;
72286;SDS011;60221;45.696;16.076;2023-08-08T03:22:13;3.40;;;0.10;;
72286;SDS011;60221;45.696;16.076;2023-08-08T03:24:40;2.30;;;0.10;;
72286;SDS011;60221;45.696;16.076;2023-08-08T03:27:07;3.70;;;0.20;;
72286;SDS011;60221;45.696;16.076;2023-08-08T03:29:34;3.50;;;0.10;;
72286;SDS011;60221;45.696;16.076;2023-08-08T03:32:00;2.20;;;0.10;;
72286;SDS011;60221;45.696;16.076;2023-08-08T03:34:28;1.80;;;0.20;;
72286;SDS011;60221;45.696;16.076;2023-08-08T03:36:55;4.20;;;0.30;;
72286;SDS011;60221;45.696;16.076;2023-08-08T03:39:22;1.50;;;0.10;;
72286;SDS011;60221;45.696;16.076;2023-08-08T03:41:49;2.70;;;0.10;;
72286;SDS011;60221;45.696;16.076;2023-08-08T03:44:17;2.00;;;0.20;;
72286;SDS011;60221;45.696;16.076;2023-08-08T03:46:44;2.80;;;0.10;;
72286;SDS011;60221;45.696;16.076;2023-08-08T03:49:12;2.50;;;0.10;;
72286;SDS011;60221;45.696;16.076;2023-08-08T03:51:38;2.30;;;0.10;;
72286;SDS011;60221;45.696;16.076;2023-08-08T03:54:05;1.90;;;0.10;;
72286;SDS011;60221;45.696;16.076;2023-08-08T03:56:32;2.70;;;0.20;;
72286;SDS011;60221;45.696;16.076;2023-08-08T03:58:59;2.50;;;0.10;;
72286;SDS011;60221;45.696;16.076;2023-08-08T04:01:25;1.70;;;0.10;;
72286;SDS011;60221;45.696;16.076;2023-08-08T04:03:52;1.80;;;0.10;;
72286;SDS011;60221;45.696;16.076;2023-08-08T04:06:19;2.60;;;0.10;;
72286;SDS011;60221;45.696;16.076;2023-08-08T04:08:45;1.90;;;0.20;;
72286;SDS011;60221;45.696;16.076;2023-08-08T04:11:12;2.60;;;0.10;;
72286;SDS011;60221;45.696;16.076;2023-08-08T04:13:39;4.00;;;0.20;;
72286;SDS011;60221;45.696;16.076;2023-08-08T04:16:06;2.00;;;0.10;;
72286;SDS011;60221;45.696;16.076;2023-08-08T04:18:33;1.10;;;0.10;;
72286;SDS011;60221;45.696;16.076;2023-08-08T04:20:59;1.40;;;0.10;;
72286;SDS011;60221;45.696;16.076;2023-08-08T04:23:26;3.30;;;0.20;;
72286;SDS011;60221;45.696;16.076;2023-08-08T04:25:53;3.30;;;0.10;;
72286;SDS011;60221;45.696;16.076;2023-08-08T04:28:19;1.90;;;0.10;;
72286;SDS011;60221;45.696;16.076;2023-08-08T04:30:46;4.60;;;0.10;;
72286;SDS011;60221;45.696;16.076;2023-08-08T04:33:13;1.80;;;0.20;;
72286;SDS011;60221;45.696;16.076;2023-08-08T04:35:39;2.00;;;0.20;;
72286;SDS011;60221;45.696;16.076;2023-08-08T04:38:06;4.70;;;0.20;;
72286;SDS011;60221;45.696;16.076;2023-08-08T04:40:33;2.80;;;0.30;;
72286;SDS011;60221;45.696;16.076;2023-08-08T04:43:01;4.90;;;0.30;;
72286;SDS011;60221;45.696;16.076;2023-08-08T04:45:28;4.20;;;0.30;;
72286;SDS011;60221;45.696;16.076;2023-08-08T04:47:55;2.70;;;0.20;;
72286;SDS011;60221;45.696;16.076;2023-08-08T04:50:22;2.20;;;0.20;;
72286;SDS011;60221;45.696;16.076;2023-08-08T04:52:49;2.90;;;0.40;;
72286;SDS011;60221;45.696;16.076;2023-08-08T04:55:15;3.60;;;0.30;;
72286;SDS011;60221;45.696;16.076;2023-08-08T04:57:42;4.20;;;0.30;;
72286;SDS011;60221;45.696;16.076;2023-08-08T05:00:09;3.20;;;0.20;;
72286;SDS011;60221;45.696;16.076;2023-08-08T05:02:36;2.10;;;0.40;;
72286;SDS011;60221;45.696;16.076;2023-08-08T05:05:04;3.60;;;0.30;;
72286;SDS011;60221;45.696;16.076;2023-08-08T05:07:31;2.60;;;0.50;;
72286;SDS011;60221;45.696;16.076;2023-08-08T05:09:58;3.00;;;0.50;;
72286;SDS011;60221;45.696;16.076;2023-08-08T05:12:25;3.70;;;0.50;;
72286;SDS011;60221;45.696;16.076;2023-08-08T05:14:53;2.00;;;0.40;;
72286;SDS011;60221;45.696;16.076;2023-08-08T05:17:20;3.40;;;0.60;;
72286;SDS011;60221;45.696;16.076;2023-08-08T05:19:47;3.10;;;0.80;;
72286;SDS011;60221;45.696;16.076;2023-08-08T05:22:13;3.60;;;0.70;;
72286;SDS011;60221;45.696;16.076;2023-08-08T05:24:40;2.90;;;0.80;;
72286;SDS011;60221;45.696;16.076;2023-08-08T05:27:07;3.30;;;0.80;;
72286;SDS011;60221;45.696;16.076;2023-08-08T05:29:33;2.10;;;0.70;;
72286;SDS011;60221;45.696;16.076;2023-08-08T05:32:04;2.40;;;0.90;;
72286;SDS011;60221;45.696;16.076;2023-08-08T05:34:33;3.00;;;0.90;;
72286;SDS011;60221;45.696;16.076;2023-08-08T05:37:00;2.80;;;0.80;;
72286;SDS011;60221;45.696;16.076;2023-08-08T05:39:41;2.80;;;0.90;;
72286;SDS011;60221;45.696;16.076;2023-08-08T05:42:08;3.10;;;1.10;;
72286;SDS011;60221;45.696;16.076;2023-08-08T05:44:35;3.40;;;1.40;;
72286;SDS011;60221;45.696;16.076;2023-08-08T05:47:01;5.90;;;2.30;;
72286;SDS011;60221;45.696;16.076;2023-08-08T05:49:28;5.60;;;3.10;;
72286;SDS011;60221;45.696;16.076;2023-08-08T05:51:54;6.90;;;2.80;;
72286;SDS011;60221;45.696;16.076;2023-08-08T05:54:21;5.10;;;2.40;;
72286;SDS011;60221;45.696;16.076;2023-08-08T05:56:48;3.90;;;1.80;;
72286;SDS011;60221;45.696;16.076;2023-08-08T05:59:14;4.60;;;1.60;;
72286;SDS011;60221;45.696;16.076;2023-08-08T06:01:41;3.90;;;1.50;;
72286;SDS011;60221;45.696;16.076;2023-08-08T06:04:08;5.20;;;1.00;;
72286;SDS011;60221;45.696;16.076;2023-08-08T06:06:35;2.50;;;1.20;;
72286;SDS011;60221;45.696;16.076;2023-08-08T06:09:01;3.60;;;1.10;;
72286;SDS011;60221;45.696;16.076;2023-08-08T06:11:29;2.80;;;1.10;;
72286;SDS011;60221;45.696;16.076;2023-08-08T06:13:56;3.50;;;1.30;;
72286;SDS011;60221;45.696;16.076;2023-08-08T06:16:22;4.90;;;1.10;;
72286;SDS011;60221;45.696;16.076;2023-08-08T06:18:49;2.50;;;1.20;;
72286;SDS011;60221;45.696;16.076;2023-08-08T06:21:16;3.30;;;1.10;;
72286;SDS011;60221;45.696;16.076;2023-08-08T06:23:43;4.80;;;1.30;;
72286;SDS011;60221;45.696;16.076;2023-08-08T06:26:09;3.80;;;1.10;;
72286;SDS011;60221;45.696;16.076;2023-08-08T06:28:36;2.30;;;0.90;;
72286;SDS011;60221;45.696;16.076;2023-08-08T06:31:03;2.60;;;1.10;;
72286;SDS011;60221;45.696;16.076;2023-08-08T06:33:30;2.40;;;1.20;;
72286;SDS011;60221;45.696;16.076;2023-08-08T06:35:56;2.00;;;0.90;;
72286;SDS011;60221;45.696;16.076;2023-08-08T06:38:23;2.50;;;1.00;;
72286;SDS011;60221;45.696;16.076;2023-08-08T06:40:50;2.50;;;0.90;;
72286;SDS011;60221;45.696;16.076;2023-08-08T06:43:18;3.40;;;1.20;;
72286;SDS011;60221;45.696;16.076;2023-08-08T06:45:44;3.40;;;1.40;;
72286;SDS011;60221;45.696;16.076;2023-08-08T06:48:11;2.70;;;1.10;;
72286;SDS011;60221;45.696;16.076;2023-08-08T06:50:38;2.30;;;1.00;;
72286;SDS011;60221;45.696;16.076;2023-08-08T06:53:05;1.80;;;0.60;;
72286;SDS011;60221;45.696;16.076;2023-08-08T06:55:32;2.60;;;1.00;;
72286;SDS011;60221;45.696;16.076;2023-08-08T06:57:58;2.30;;;0.90;;
72286;SDS011;60221;45.696;16.076;2023-08-08T07:00:25;3.70;;;1.30;;
72286;SDS011;60221;45.696;16.076;2023-08-08T07:02:53;3.30;;;1.20;;
72286;SDS011;60221;45.696;16.076;2023-08-08T07:05:20;3.30;;;0.90;;
72286;SDS011;60221;45.696;16.076;2023-08-08T07:07:49;2.40;;;1.10;;
72286;SDS011;60221;45.696;16.076;2023-08-08T07:10:16;2.30;;;1.10;;
72286;SDS011;60221;45.696;16.076;2023-08-08T07:12:43;2.40;;;1.00;;
72286;SDS011;60221;45.696;16.076;2023-08-08T07:15:09;2.50;;;1.00;;
72286;SDS011;60221;45.696;16.076;2023-08-08T07:17:36;4.10;;;0.80;;
72286;SDS011;60221;45.696;16.076;2023-08-08T07:20:03;2.10;;;0.90;;
72286;SDS011;60221;45.696;16.076;2023-08-08T07:22:32;2.50;;;0.90;;
72286;SDS011;60221;45.696;16.076;2023-08-08T07:24:59;2.30;;;0.90;;
72286;SDS011;60221;45.696;16.076;2023-08-08T07:27:26;3.00;;;1.30;;
72286;SDS011;60221;45.696;16.076;2023-08-08T07:29:52;3.10;;;0.90;;
72286;SDS011;60221;45.696;16.076;2023-08-08T07:32:19;2.00;;;0.70;;
72286;SDS011;60221;45.696;16.076;2023-08-08T07:34:46;3.80;;;0.80;;
72286;SDS011;60221;45.696;16.076;2023-08-08T07:37:13;2.40;;;0.80;;
72286;SDS011;60221;45.696;16.076;2023-08-08T07:39:40;3.10;;;0.80;;
72286;SDS011;60221;45.696;16.076;2023-08-08T07:42:07;3.90;;;0.80;;
72286;SDS011;60221;45.696;16.076;2023-08-08T07:44:33;4.20;;;0.80;;
72286;SDS011;60221;45.696;16.076;2023-08-08T07:47:01;3.40;;;0.80;;
72286;SDS011;60221;45.696;16.076;2023-08-08T07:49:28;3.50;;;0.90;;
72286;SDS011;60221;45.696;16.076;2023-08-08T07:51:54;2.00;;;0.80;;
72286;SDS011;60221;45.696;16.076;2023-08-08T07:54:21;3.30;;;0.90;;
72286;SDS011;60221;45.696;16.076;2023-08-08T07:56:48;3.30;;;0.90;;
72286;SDS011;60221;45.696;16.076;2023-08-08T07:59:14;2.10;;;0.70;;
72286;SDS011;60221;45.696;16.076;2023-08-08T08:01:42;2.40;;;0.90;;
72286;SDS011;60221;45.696;16.076;2023-08-08T08:04:09;2.40;;;0.70;;
72286;SDS011;60221;45.696;16.076;2023-08-08T08:06:36;2.10;;;0.80;;
72286;SDS011;60221;45.696;16.076;2023-08-08T08:09:03;2.70;;;0.80;;
72286;SDS011;60221;45.696;16.076;2023-08-08T08:11:30;4.00;;;1.00;;
72286;SDS011;60221;45.696;16.076;2023-08-08T08:13:57;3.20;;;0.80;;
72286;SDS011;60221;45.696;16.076;2023-08-08T08:16:23;3.90;;;0.90;;
72286;SDS011;60221;45.696;16.076;2023-08-08T08:18:50;2.00;;;0.70;;
72286;SDS011;60221;45.696;16.076;2023-08-08T08:21:17;2.50;;;0.70;;
72286;SDS011;60221;45.696;16.076;2023-08-08T08:23:44;2.40;;;0.80;;
72286;SDS011;60221;45.696;16.076;2023-08-08T08:26:11;9.70;;;3.50;;
72286;SDS011;60221;45.696;16.076;2023-08-08T08:28:38;3.40;;;0.90;;
72286;SDS011;60221;45.696;16.076;2023-08-08T08:31:06;4.40;;;0.70;;
72286;SDS011;60221;45.696;16.076;2023-08-08T08:33:34;2.50;;;0.60;;
72286;SDS011;60221;45.696;16.076;2023-08-08T08:36:01;3.00;;;0.80;;
72286;SDS011;60221;45.696;16.076;2023-08-08T08:38:27;4.40;;;0.90;;
72286;SDS011;60221;45.696;16.076;2023-08-08T08:40:55;2.50;;;0.70;;
72286;SDS011;60221;45.696;16.076;2023-08-08T08:43:22;2.40;;;0.70;;
72286;SDS011;60221;45.696;16.076;2023-08-08T08:45:52;3.30;;;0.70;;
72286;SDS011;60221;45.696;16.076;2023-08-08T08:48:20;2.60;;;0.90;;
72286;SDS011;60221;45.696;16.076;2023-08-08T08:50:48;2.20;;;0.70;;
72286;SDS011;60221;45.696;16.076;2023-08-08T08:53:15;3.80;;;1.00;;
72286;SDS011;60221;45.696;16.076;2023-08-08T08:55:44;2.30;;;0.70;;
72286;SDS011;60221;45.696;16.076;2023-08-08T08:58:11;2.50;;;0.50;;
72286;SDS011;60221;45.696;16.076;2023-08-08T09:00:39;2.30;;;0.60;;
72286;SDS011;60221;45.696;16.076;2023-08-08T09:03:06;3.90;;;0.70;;
72286;SDS011;60221;45.696;16.076;2023-08-08T09:05:33;1.80;;;0.50;;
72286;SDS011;60221;45.696;16.076;2023-08-08T09:08:01;2.20;;;0.50;;
72286;SDS011;60221;45.696;16.076;2023-08-08T09:10:28;1.50;;;0.40;;
72286;SDS011;60221;45.696;16.076;2023-08-08T09:13:04;3.40;;;0.70;;
72286;SDS011;60221;45.696;16.076;2023-08-08T09:15:31;2.30;;;0.60;;
72286;SDS011;60221;45.696;16.076;2023-08-08T09:17:58;2.20;;;0.70;;
72286;SDS011;60221;45.696;16.076;2023-08-08T09:20:25;3.70;;;0.80;;
72286;SDS011;60221;45.696;16.076;2023-08-08T09:22:54;3.10;;;0.50;;
72286;SDS011;60221;45.696;16.076;2023-08-08T09:25:21;2.00;;;0.50;;
72286;SDS011;60221;45.696;16.076;2023-08-08T09:27:53;2.00;;;0.50;;
72286;SDS011;60221;45.696;16.076;2023-08-08T09:30:19;1.60;;;0.60;;
72286;SDS011;60221;45.696;16.076;2023-08-08T09:32:46;2.60;;;0.60;;
72286;SDS011;60221;45.696;16.076;2023-08-08T09:35:14;2.10;;;0.50;;
72286;SDS011;60221;45.696;16.076;2023-08-08T09:37:41;2.90;;;0.60;;
72286;SDS011;60221;45.696;16.076;2023-08-08T09:40:08;3.70;;;1.10;;
72286;SDS011;60221;45.696;16.076;2023-08-08T09:42:39;2.80;;;0.90;;
72286;SDS011;60221;45.696;16.076;2023-08-08T09:45:07;3.00;;;1.00;;
72286;SDS011;60221;45.696;16.076;2023-08-08T09:47:34;2.10;;;0.70;;
72286;SDS011;60221;45.696;16.076;2023-08-08T09:50:01;2.50;;;0.70;;
72286;SDS011;60221;45.696;16.076;2023-08-08T09:52:33;2.70;;;1.00;;
72286;SDS011;60221;45.696;16.076;2023-08-08T09:54:59;1.90;;;0.70;;
72286;SDS011;60221;45.696;16.076;2023-08-08T09:57:27;2.30;;;0.60;;
72286;SDS011;60221;45.696;16.076;2023-08-08T09:59:54;1.70;;;0.50;;
72286;SDS011;60221;45.696;16.076;2023-08-08T10:02:21;2.00;;;0.70;;
72286;SDS011;60221;45.696;16.076;2023-08-08T10:04:48;2.40;;;0.90;;
72286;SDS011;60221;45.696;16.076;2023-08-08T10:07:15;2.00;;;0.60;;
72286;SDS011;60221;45.696;16.076;2023-08-08T10:09:42;2.90;;;0.90;;
72286;SDS011;60221;45.696;16.076;2023-08-08T10:12:09;2.70;;;0.80;;
72286;SDS011;60221;45.696;16.076;2023-08-08T10:14:36;1.70;;;0.60;;
72286;SDS011;60221;45.696;16.076;2023-08-08T10:17:04;2.60;;;0.90;;
72286;SDS011;60221;45.696;16.076;2023-08-08T10:19:32;2.20;;;0.70;;
72286;SDS011;60221;45.696;16.076;2023-08-08T10:21:59;3.00;;;0.60;;
72286;SDS011;60221;45.696;16.076;2023-08-08T10:24:32;2.20;;;0.90;;
72286;SDS011;60221;45.696;16.076;2023-08-08T10:26:59;2.70;;;0.80;;
72286;SDS011;60221;45.696;16.076;2023-08-08T10:29:29;2.40;;;0.80;;
72286;SDS011;60221;45.696;16.076;2023-08-08T10:32:00;1.60;;;0.60;;
72286;SDS011;60221;45.696;16.076;2023-08-08T10:34:38;1.80;;;0.60;;
72286;SDS011;60221;45.696;16.076;2023-08-08T10:37:09;2.30;;;0.60;;
72286;SDS011;60221;45.696;16.076;2023-08-08T10:39:36;2.00;;;0.80;;
72286;SDS011;60221;45.696;16.076;2023-08-08T10:42:03;1.80;;;0.60;;
72286;SDS011;60221;45.696;16.076;2023-08-08T10:44:30;2.80;;;0.60;;
72286;SDS011;60221;45.696;16.076;2023-08-08T10:46:59;2.20;;;0.70;;
72286;SDS011;60221;45.696;16.076;2023-08-08T10:49:26;1.80;;;0.60;;
72286;SDS011;60221;45.696;16.076;2023-08-08T10:51:53;2.00;;;0.60;;
72286;SDS011;60221;45.696;16.076;2023-08-08T10:54:23;1.90;;;0.60;;
72286;SDS011;60221;45.696;16.076;2023-08-08T10:56:54;1.90;;;0.70;;
72286;SDS011;60221;45.696;16.076;2023-08-08T10:59:22;1.80;;;0.70;;
72286;SDS011;60221;45.696;16.076;2023-08-08T11:01:50;12.90;;;4.90;;
72286;SDS011;60221;45.696;16.076;2023-08-08T11:04:21;4.00;;;1.10;;
72286;SDS011;60221;45.696;16.076;2023-08-08T11:06:49;2.20;;;0.70;;
72286;SDS011;60221;45.696;16.076;2023-08-08T11:09:16;3.70;;;1.20;;
72286;SDS011;60221;45.696;16.076;2023-08-08T11:11:44;17.80;;;7.20;;
72286;SDS011;60221;45.696;16.076;2023-08-08T11:14:12;26.40;;;10.30;;
72286;SDS011;60221;45.696;16.076;2023-08-08T11:16:40;4.60;;;1.80;;
72286;SDS011;60221;45.696;16.076;2023-08-08T11:19:07;2.50;;;1.00;;
72286;SDS011;60221;45.696;16.076;2023-08-08T11:21:35;4.10;;;1.00;;
72286;SDS011;60221;45.696;16.076;2023-08-08T11:24:03;5.70;;;1.50;;
72286;SDS011;60221;45.696;16.076;2023-08-08T11:26:30;2.20;;;0.70;;
72286;SDS011;60221;45.696;16.076;2023-08-08T11:29:00;2.00;;;0.70;;
72286;SDS011;60221;45.696;16.076;2023-08-08T11:31:27;2.50;;;0.80;;
72286;SDS011;60221;45.696;16.076;2023-08-08T11:33:55;4.20;;;1.00;;
72286;SDS011;60221;45.696;16.076;2023-08-08T11:36:22;2.10;;;0.80;;
72286;SDS011;60221;45.696;16.076;2023-08-08T11:38:50;3.20;;;0.60;;
72286;SDS011;60221;45.696;16.076;2023-08-08T11:41:17;2.90;;;0.80;;
72286;SDS011;60221;45.696;16.076;2023-08-08T11:43:46;2.20;;;0.70;;
72286;SDS011;60221;45.696;16.076;2023-08-08T11:46:14;2.00;;;0.70;;
72286;SDS011;60221;45.696;16.076;2023-08-08T11:48:41;1.90;;;0.70;;
72286;SDS011;60221;45.696;16.076;2023-08-08T11:51:08;1.80;;;0.70;;
72286;SDS011;60221;45.696;16.076;2023-08-08T11:53:35;2.20;;;0.80;;
72286;SDS011;60221;45.696;16.076;2023-08-08T11:56:04;2.50;;;0.70;;
72286;SDS011;60221;45.696;16.076;2023-08-08T11:58:32;2.10;;;0.80;;
72286;SDS011;60221;45.696;16.076;2023-08-08T12:00:58;2.10;;;0.70;;
72286;SDS011;60221;45.696;16.076;2023-08-08T12:03:25;1.90;;;0.70;;
72286;SDS011;60221;45.696;16.076;2023-08-08T12:05:52;2.90;;;0.70;;
72286;SDS011;60221;45.696;16.076;2023-08-08T12:08:19;1.90;;;0.60;;
72286;SDS011;60221;45.696;16.076;2023-08-08T12:10:47;2.20;;;0.70;;
72286;SDS011;60221;45.696;16.076;2023-08-08T12:13:20;1.60;;;0.70;;
72286;SDS011;60221;45.696;16.076;2023-08-08T12:15:47;2.10;;;0.70;;
72286;SDS011;60221;45.696;16.076;2023-08-08T12:18:16;2.80;;;1.10;;
72286;SDS011;60221;45.696;16.076;2023-08-08T12:20:43;1.80;;;0.60;;
72286;SDS011;60221;45.696;16.076;2023-08-08T12:23:10;2.20;;;0.90;;
72286;SDS011;60221;45.696;16.076;2023-08-08T12:25:37;2.00;;;0.60;;
72286;SDS011;60221;45.696;16.076;2023-08-08T12:28:04;3.80;;;1.20;;
72286;SDS011;60221;45.696;16.076;2023-08-08T12:30:31;2.50;;;1.00;;
72286;SDS011;60221;45.696;16.076;2023-08-08T12:32:58;1.70;;;0.70;;
72286;SDS011;60221;45.696;16.076;2023-08-08T12:35:24;2.60;;;0.80;;
72286;SDS011;60221;45.696;16.076;2023-08-08T12:37:53;2.50;;;1.00;;
72286;SDS011;60221;45.696;16.076;2023-08-08T12:40:19;3.60;;;0.80;;
72286;SDS011;60221;45.696;16.076;2023-08-08T12:42:46;2.50;;;0.80;;
72286;SDS011;60221;45.696;16.076;2023-08-08T12:45:14;2.90;;;0.80;;
72286;SDS011;60221;45.696;16.076;2023-08-08T12:47:41;1.90;;;0.60;;
72286;SDS011;60221;45.696;16.076;2023-08-08T12:50:08;2.90;;;0.80;;
72286;SDS011;60221;45.696;16.076;2023-08-08T12:52:34;2.20;;;0.80;;
72286;SDS011;60221;45.696;16.076;2023-08-08T12:55:02;2.30;;;0.80;;
72286;SDS011;60221;45.696;16.076;2023-08-08T12:57:29;2.30;;;0.80;;
72286;SDS011;60221;45.696;16.076;2023-08-08T12:59:56;2.50;;;0.70;;
72286;SDS011;60221;45.696;16.076;2023-08-08T13:02:22;2.80;;;0.80;;
72286;SDS011;60221;45.696;16.076;2023-08-08T13:04:49;2.20;;;0.80;;
72286;SDS011;60221;45.696;16.076;2023-08-08T13:07:16;2.40;;;0.80;;
72286;SDS011;60221;45.696;16.076;2023-08-08T13:09:43;2.30;;;0.90;;
72286;SDS011;60221;45.696;16.076;2023-08-08T13:12:09;2.10;;;0.70;;
72286;SDS011;60221;45.696;16.076;2023-08-08T13:14:36;2.50;;;1.00;;
72286;SDS011;60221;45.696;16.076;2023-08-08T13:17:03;3.00;;;0.90;;
72286;SDS011;60221;45.696;16.076;2023-08-08T13:19:30;2.30;;;0.90;;
72286;SDS011;60221;45.696;16.076;2023-08-08T13:21:57;2.90;;;1.00;;
72286;SDS011;60221;45.696;16.076;2023-08-08T13:24:24;2.30;;;0.80;;
72286;SDS011;60221;45.696;16.076;2023-08-08T13:26:51;2.20;;;0.70;;
72286;SDS011;60221;45.696;16.076;2023-08-08T13:29:18;1.60;;;0.50;;
72286;SDS011;60221;45.696;16.076;2023-08-08T13:31:45;2.60;;;0.90;;
72286;SDS011;60221;45.696;16.076;2023-08-08T13:34:11;2.10;;;0.80;;
72286;SDS011;60221;45.696;16.076;2023-08-08T13:36:38;2.10;;;0.80;;
72286;SDS011;60221;45.696;16.076;2023-08-08T13:39:05;2.00;;;0.70;;
72286;SDS011;60221;45.696;16.076;2023-08-08T13:41:31;5.80;;;1.00;;
72286;SDS011;60221;45.696;16.076;2023-08-08T13:43:58;2.10;;;0.70;;
72286;SDS011;60221;45.696;16.076;2023-08-08T13:46:25;2.70;;;0.60;;
72286;SDS011;60221;45.696;16.076;2023-08-08T13:48:52;2.90;;;0.60;;
72286;SDS011;60221;45.696;16.076;2023-08-08T13:51:19;2.80;;;0.70;;
72286;SDS011;60221;45.696;16.076;2023-08-08T13:53:46;2.60;;;0.70;;
72286;SDS011;60221;45.696;16.076;2023-08-08T13:56:14;2.70;;;0.90;;
72286;SDS011;60221;45.696;16.076;2023-08-08T13:58:41;2.00;;;0.50;;
72286;SDS011;60221;45.696;16.076;2023-08-08T14:01:08;3.10;;;0.70;;
72286;SDS011;60221;45.696;16.076;2023-08-08T14:03:35;1.50;;;0.50;;
72286;SDS011;60221;45.696;16.076;2023-08-08T14:06:01;2.60;;;0.60;;
72286;SDS011;60221;45.696;16.076;2023-08-08T14:08:28;1.80;;;0.60;;
72286;SDS011;60221;45.696;16.076;2023-08-08T14:10:55;1.70;;;0.70;;
72286;SDS011;60221;45.696;16.076;2023-08-08T14:13:21;1.80;;;0.60;;
72286;SDS011;60221;45.696;16.076;2023-08-08T14:15:48;1.90;;;0.60;;
72286;SDS011;60221;45.696;16.076;2023-08-08T14:18:15;2.10;;;0.50;;
72286;SDS011;60221;45.696;16.076;2023-08-08T14:20:42;1.70;;;0.50;;
72286;SDS011;60221;45.696;16.076;2023-08-08T14:23:08;2.90;;;0.70;;
72286;SDS011;60221;45.696;16.076;2023-08-08T14:25:35;1.90;;;0.70;;
72286;SDS011;60221;45.696;16.076;2023-08-08T14:28:02;2.30;;;0.70;;
72286;SDS011;60221;45.696;16.076;2023-08-08T14:30:30;2.30;;;0.70;;
72286;SDS011;60221;45.696;16.076;2023-08-08T14:32:57;2.20;;;0.80;;